Time;durP1;ratioP1;P1;durP2;ratioP2;P2;SDS_P1;SDS_P2;PMS_P1;PMS_P2;Temp;Humidity;BMP_temperature;BMP_pressure;BME280_temperature;BME280_humidity;BME280_pressure;Samples;Min_cycle;Max_cycle;Signal;HPM_P1;HPM_P2
2023/06/05 00:02:26;;;;;;;483.02;379.13;;;;;;;;;;4964749;28;20571;-69
2023/06/05 00:04:53;;;;;;;414.10;363.95;;;;;;;;;;4940069;28;20054;-68
2023/06/05 00:07:20;;;;;;;416.00;357.45;;;;;;;;;;4966863;28;20054;-70
2023/06/05 00:09:47;;;;;;;421.55;359.38;;;;;;;;;;4966358;28;20043;-71
2023/06/05 00:12:15;;;;;;;426.25;351.58;;;;;;;;;;4954621;28;20073;-69
2023/06/05 00:14:43;;;;;;;424.08;355.95;;;;;;;;;;4964461;28;20042;-68
2023/06/05 00:17:10;;;;;;;447.17;357.35;;;;;;;;;;4967040;28;20055;-69
2023/06/05 00:19:37;;;;;;;390.48;344.73;;;;;;;;;;4966155;28;20126;-70
2023/06/05 00:22:04;;;;;;;410.08;345.90;;;;;;;;;;4963610;28;20118;-69
2023/06/05 00:24:32;;;;;;;400.98;337.30;;;;;;;;;;4949298;28;20513;-69
2023/06/05 00:26:59;;;;;;;407.70;346.20;;;;;;;;;;4972370;28;20070;-70
2023/06/05 00:29:26;;;;;;;426.67;354.15;;;;;;;;;;4947368;28;20466;-71
2023/06/05 00:31:53;;;;;;;397.27;343.08;;;;;;;;;;4950074;28;20051;-70
2023/06/05 00:34:20;;;;;;;389.05;342.48;;;;;;;;;;4965833;28;20061;-69
2023/06/05 00:36:50;;;;;;;400.75;335.10;;;;;;;;;;4965084;28;20498;-69
2023/06/05 00:39:20;;;;;;;411.75;354.27;;;;;;;;;;4953694;28;20054;-71
2023/06/05 00:41:47;;;;;;;406.23;345.25;;;;;;;;;;4945527;28;20046;-68
2023/06/05 00:44:18;;;;;;;408.25;344.23;;;;;;;;;;4963510;28;20051;-70
2023/06/05 00:46:46;;;;;;;410.13;343.75;;;;;;;;;;4955684;28;20569;-68
2023/06/05 00:49:13;;;;;;;422.13;350.52;;;;;;;;;;4947728;28;20141;-69
2023/06/05 00:51:42;;;;;;;410.83;345.10;;;;;;;;;;4969127;28;20061;-70
2023/06/05 00:54:10;;;;;;;409.52;339.88;;;;;;;;;;4965440;28;20051;-70
2023/06/05 00:56:39;;;;;;;419.40;340.30;;;;;;;;;;4947397;28;20055;-69
2023/06/05 00:59:06;;;;;;;438.80;348.70;;;;;;;;;;4951126;28;20682;-70
2023/06/05 01:01:34;;;;;;;434.33;355.35;;;;;;;;;;4930742;28;20091;-70
2023/06/05 01:04:01;;;;;;;413.55;333.25;;;;;;;;;;4956237;28;20047;-68
2023/06/05 01:06:30;;;;;;;458.40;351.08;;;;;;;;;;4959888;28;20071;-69
2023/06/05 01:09:00;;;;;;;439.85;340.10;;;;;;;;;;4968663;28;20432;-70
2023/06/05 01:11:45;;;;;;;472.35;343.23;;;;;;;;;;4963048;28;20043;-69
2023/06/05 01:14:23;;;;;;;442.35;332.90;;;;;;;;;;4963285;28;20492;-69
2023/06/05 01:16:56;;;;;;;444.92;330.30;;;;;;;;;;4963488;28;20110;-69
2023/06/05 01:19:30;;;;;;;422.33;334.35;;;;;;;;;;4964318;28;20043;-68
2023/06/05 01:21:58;;;;;;;436.60;326.35;;;;;;;;;;4968502;28;20130;-69
2023/06/05 01:24:27;;;;;;;502.55;352.65;;;;;;;;;;4966497;28;20149;-68
2023/06/05 01:26:55;;;;;;;431.05;322.77;;;;;;;;;;4962529;28;20077;-69
2023/06/05 01:29:26;;;;;;;466.83;342.55;;;;;;;;;;4960560;28;20050;-70
2023/06/05 01:31:56;;;;;;;448.52;335.23;;;;;;;;;;4953430;28;20603;-68
2023/06/05 01:34:24;;;;;;;462.95;346.95;;;;;;;;;;4945680;28;20576;-68
2023/06/05 01:36:52;;;;;;;433.92;331.58;;;;;;;;;;4965717;28;20118;-71
2023/06/05 01:39:21;;;;;;;448.08;325.50;;;;;;;;;;4932350;28;20058;-70
2023/06/05 01:41:49;;;;;;;419.77;319.30;;;;;;;;;;4962124;28;20149;-68
2023/06/05 01:44:17;;;;;;;405.58;319.55;;;;;;;;;;4965250;28;20126;-69
2023/06/05 01:46:45;;;;;;;389.10;311.52;;;;;;;;;;4954881;28;20053;-69
2023/06/05 01:49:13;;;;;;;395.98;316.67;;;;;;;;;;4960424;28;20043;-69
2023/06/05 01:51:41;;;;;;;396.10;317.73;;;;;;;;;;4948409;28;20075;-68
2023/06/05 01:54:08;;;;;;;412.95;314.88;;;;;;;;;;4953270;28;20125;-70
2023/06/05 01:56:36;;;;;;;441.35;332.98;;;;;;;;;;4954063;28;20054;-68
2023/06/05 01:59:06;;;;;;;391.20;312.27;;;;;;;;;;4929384;28;20501;-70
2023/06/05 02:01:34;;;;;;;568.75;376.63;;;;;;;;;;4872904;22;20076;-69
2023/06/05 02:04:05;;;;;;;340.50;272.00;;;;;;;;;;5046751;28;20041;-69
2023/06/05 02:06:41;;;;;;;368.02;300.73;;;;;;;;;;5064278;28;20440;-68
2023/06/05 02:09:10;;;;;;;376.63;299.52;;;;;;;;;;5042296;28;20104;-68
2023/06/05 02:11:39;;;;;;;398.35;309.13;;;;;;;;;;5060449;28;20059;-66
2023/06/05 02:14:06;;;;;;;329.67;275.63;;;;;;;;;;5062447;28;20052;-68
2023/06/05 02:16:33;;;;;;;346.67;284.55;;;;;;;;;;5040693;28;20044;-68
2023/06/05 02:19:03;;;;;;;339.48;271.30;;;;;;;;;;5042784;28;20094;-68
2023/06/05 02:21:32;;;;;;;354.55;280.40;;;;;;;;;;5057582;28;20045;-68
2023/06/05 02:23:59;;;;;;;342.42;292.48;;;;;;;;;;5043985;28;20435;-68
2023/06/05 02:26:27;;;;;;;399.17;309.42;;;;;;;;;;5061164;28;20478;-68
2023/06/05 02:28:55;;;;;;;351.38;284.38;;;;;;;;;;5045854;28;20106;-69
2023/06/05 02:31:28;;;;;;;333.65;280.55;;;;;;;;;;5042809;28;20051;-68
2023/06/05 02:33:56;;;;;;;346.02;276.63;;;;;;;;;;5058903;28;20111;-69
2023/06/05 02:36:24;;;;;;;335.60;281.30;;;;;;;;;;5059232;28;20075;-68
2023/06/05 02:38:52;;;;;;;327.73;273.67;;;;;;;;;;5043688;28;20041;-68
2023/06/05 02:41:23;;;;;;;327.83;275.95;;;;;;;;;;5026055;28;20444;-71
2023/06/05 02:43:50;;;;;;;334.50;275.63;;;;;;;;;;5037136;28;20079;-69
2023/06/05 02:46:17;;;;;;;322.50;270.02;;;;;;;;;;5045563;28;20041;-69
2023/06/05 02:48:45;;;;;;;334.08;271.02;;;;;;;;;;5041516;28;20412;-68
2023/06/05 02:51:12;;;;;;;337.85;287.88;;;;;;;;;;5049326;28;20047;-66
2023/06/05 02:53:41;;;;;;;383.40;306.92;;;;;;;;;;5043192;28;20052;-66
2023/06/05 02:56:09;;;;;;;423.65;320.17;;;;;;;;;;5045805;28;20049;-65
2023/06/05 02:58:35;;;;;;;385.23;278.33;;;;;;;;;;5063587;28;20512;-70
2023/06/05 03:01:02;;;;;;;415.40;289.77;;;;;;;;;;5061401;28;20037;-71
2023/06/05 03:03:37;;;;;;;413.70;294.92;;;;;;;;;;5038910;28;20055;-68
2023/06/05 03:06:04;;;;;;;515.25;458.90;;;;;;;;;;5060519;28;20052;-69
2023/06/05 03:08:34;;;;;;;445.98;321.20;;;;;;;;;;5059440;28;20049;-69
2023/06/05 03:11:05;;;;;;;385.52;316.92;;;;;;;;;;5043992;28;20123;-69
2023/06/05 03:13:32;;;;;;;402.98;332.73;;;;;;;;;;5041405;28;20577;-69
2023/06/05 03:16:02;;;;;;;393.67;336.77;;;;;;;;;;5043176;28;20044;-65
2023/06/05 03:18:33;;;;;;;438.25;371.13;;;;;;;;;;5039232;28;20061;-69
2023/06/05 03:21:00;;;;;;;409.52;365.20;;;;;;;;;;5043958;28;20040;-65
2023/06/05 03:23:28;;;;;;;440.77;395.02;;;;;;;;;;5043844;28;20160;-69
2023/06/05 03:25:57;;;;;;;429.45;388.60;;;;;;;;;;5040943;28;20095;-70
2023/06/05 03:28:25;;;;;;;458.30;414.02;;;;;;;;;;5044145;28;20056;-70
2023/06/05 03:30:55;;;;;;;461.00;418.77;;;;;;;;;;5038230;28;20045;-70
2023/06/05 03:33:25;;;;;;;460.10;418.23;;;;;;;;;;5043704;28;20048;-69
2023/06/05 03:35:55;;;;;;;466.27;421.25;;;;;;;;;;5057290;28;20468;-70
2023/06/05 03:38:23;;;;;;;461.73;420.02;;;;;;;;;;5060226;28;20143;-69
2023/06/05 03:40:50;;;;;;;452.95;412.40;;;;;;;;;;5042804;28;20045;-69
2023/06/05 03:43:19;;;;;;;453.83;413.35;;;;;;;;;;5064503;28;20128;-71
2023/06/05 03:45:46;;;;;;;445.67;405.30;;;;;;;;;;5055436;28;20036;-69
2023/06/05 03:48:13;;;;;;;454.02;412.25;;;;;;;;;;5045344;28;20539;-69
2023/06/05 03:50:42;;;;;;;462.02;419.30;;;;;;;;;;5041882;28;20107;-70
2023/06/05 03:53:10;;;;;;;433.05;393.95;;;;;;;;;;5057969;28;20049;-64
2023/06/05 03:55:41;;;;;;;462.67;419.98;;;;;;;;;;5059903;28;20091;-69
2023/06/05 03:58:16;;;;;;;474.95;435.10;;;;;;;;;;5040456;28;20091;-71
2023/06/05 04:00:48;;;;;;;477.10;438.42;;;;;;;;;;5040829;28;20481;-69
2023/06/05 04:03:15;;;;;;;523.75;481.77;;;;;;;;;;5039874;28;20053;-74
2023/06/05 04:05:42;;;;;;;571.05;523.20;;;;;;;;;;5027695;28;20132;-69
2023/06/05 04:08:11;;;;;;;568.63;525.65;;;;;;;;;;5042392;28;20571;-71
2023/06/05 04:10:38;;;;;;;605.05;558.60;;;;;;;;;;5058272;28;20131;-70
2023/06/05 04:13:05;;;;;;;683.70;630.38;;;;;;;;;;5040355;28;20049;-66
2023/06/05 04:15:34;;;;;;;714.17;657.92;;;;;;;;;;5043089;28;20045;-70
2023/06/05 04:18:03;;;;;;;790.40;727.22;;;;;;;;;;5044382;28;20041;-72
2023/06/05 04:20:30;;;;;;;828.70;760.45;;;;;;;;;;5040907;28;20114;-69
2023/06/05 04:22:57;;;;;;;821.20;757.72;;;;;;;;;;5041171;28;20041;-70
2023/06/05 04:25:28;;;;;;;830.28;766.22;;;;;;;;;;5032843;28;20398;-69
2023/06/05 04:27:57;;;;;;;838.08;770.80;;;;;;;;;;5058634;28;20155;-69
2023/06/05 04:30:24;;;;;;;844.15;776.45;;;;;;;;;;5061427;28;20052;-68
2023/06/05 04:32:55;;;;;;;857.50;790.33;;;;;;;;;;5060869;28;20119;-68
2023/06/05 04:35:25;;;;;;;881.83;803.57;;;;;;;;;;5052192;28;20048;-63
2023/06/05 04:37:52;;;;;;;770.80;710.08;;;;;;;;;;5049282;28;20506;-64
2023/06/05 04:40:20;;;;;;;935.22;861.60;;;;;;;;;;5061328;28;20037;-68
2023/06/05 04:42:49;;;;;;;843.53;778.22;;;;;;;;;;5039823;28;20044;-69
2023/06/05 04:45:16;;;;;;;967.38;889.08;;;;;;;;;;5045514;28;20158;-67
2023/06/05 04:47:46;;;;;;;904.53;832.05;;;;;;;;;;5044423;28;20053;-72
2023/06/05 04:50:26;;;;;;;821.47;758.17;;;;;;;;;;5045767;28;20063;-66
2023/06/05 04:52:59;;;;;;;811.58;748.53;;;;;;;;;;5045283;28;20048;-65
2023/06/05 04:55:26;;;;;;;831.72;768.13;;;;;;;;;;5044351;28;20617;-69
2023/06/05 04:57:56;;;;;;;835.90;770.88;;;;;;;;;;5047570;28;20051;-64
2023/06/05 05:00:23;;;;;;;814.45;751.20;;;;;;;;;;5030597;28;20425;-64
2023/06/05 05:02:50;;;;;;;822.10;758.08;;;;;;;;;;5044553;28;20053;-67
2023/06/05 05:05:18;;;;;;;845.60;770.97;;;;;;;;;;5051453;28;20593;-66
2023/06/05 05:07:47;;;;;;;831.47;765.20;;;;;;;;;;5064859;28;20386;-72
2023/06/05 05:10:14;;;;;;;844.08;770.55;;;;;;;;;;5043346;28;20459;-66
2023/06/05 05:12:41;;;;;;;830.20;765.15;;;;;;;;;;5060576;28;20055;-69
2023/06/05 05:15:08;;;;;;;826.95;762.08;;;;;;;;;;5043299;28;20044;-66
2023/06/05 05:17:35;;;;;;;835.28;767.22;;;;;;;;;;5044050;28;20053;-67
2023/06/05 05:20:04;;;;;;;834.75;770.05;;;;;;;;;;5064832;28;20049;-63
2023/06/05 05:22:30;;;;;;;834.70;769.05;;;;;;;;;;5046794;28;20371;-67
2023/06/05 05:24:58;;;;;;;873.40;804.85;;;;;;;;;;5047840;28;20045;-67
2023/06/05 05:27:25;;;;;;;866.55;792.88;;;;;;;;;;5060931;28;20114;-66
2023/06/05 05:29:53;;;;;;;875.97;805.83;;;;;;;;;;5060492;28;20611;-69
2023/06/05 05:32:21;;;;;;;912.55;838.75;;;;;;;;;;5061980;28;20045;-64
2023/06/05 05:34:47;;;;;;;914.17;840.88;;;;;;;;;;5044081;28;20143;-67
2023/06/05 05:37:14;;;;;;;898.80;824.65;;;;;;;;;;5057701;28;20048;-67
2023/06/05 05:39:41;;;;;;;916.88;841.85;;;;;;;;;;5045367;28;20045;-65
2023/06/05 05:42:08;;;;;;;900.65;826.85;;;;;;;;;;5060995;28;20063;-67
2023/06/05 05:44:35;;;;;;;908.15;832.75;;;;;;;;;;5059242;28;20047;-66
2023/06/05 05:47:05;;;;;;;886.63;814.30;;;;;;;;;;5063645;28;20119;-66
2023/06/05 05:49:32;;;;;;;886.13;807.00;;;;;;;;;;5061201;28;20132;-67
2023/06/05 05:51:58;;;;;;;888.03;814.20;;;;;;;;;;5062069;28;20051;-66
2023/06/05 05:54:27;;;;;;;901.92;823.20;;;;;;;;;;5060037;28;20045;-67
2023/06/05 05:56:54;;;;;;;907.17;831.03;;;;;;;;;;5059946;28;20048;-72
2023/06/05 05:59:21;;;;;;;922.25;846.25;;;;;;;;;;5076541;28;20049;-66
2023/06/05 06:01:49;;;;;;;924.40;845.85;;;;;;;;;;5059645;28;20063;-67
2023/06/05 06:04:17;;;;;;;925.35;843.50;;;;;;;;;;5058202;28;20127;-66
2023/06/05 06:06:47;;;;;;;925.47;848.85;;;;;;;;;;5062826;28;20126;-67
2023/06/05 06:09:14;;;;;;;966.78;883.13;;;;;;;;;;5043534;28;20102;-64
2023/06/05 06:11:41;;;;;;;998.75;912.22;;;;;;;;;;5061352;28;20116;-68
2023/06/05 06:14:10;;;;;;;1025.65;940.60;;;;;;;;;;5064051;28;20041;-66
2023/06/05 06:16:37;;;;;;;1054.38;967.40;;;;;;;;;;5059492;28;20478;-67
2023/06/05 06:19:04;;;;;;;1079.75;986.38;;;;;;;;;;5043702;28;20079;-68
2023/06/05 06:21:31;;;;;;;1104.00;999.90;;;;;;;;;;5042181;28;20041;-63
2023/06/05 06:23:57;;;;;;;1101.15;981.88;;;;;;;;;;5053079;28;20414;-65
2023/06/05 06:26:26;;;;;;;1066.97;974.58;;;;;;;;;;5065170;28;20043;-66
2023/06/05 06:28:55;;;;;;;981.00;897.92;;;;;;;;;;5063891;28;20045;-61
2023/06/05 06:31:22;;;;;;;977.55;890.80;;;;;;;;;;5063662;28;20509;-63
2023/06/05 06:33:49;;;;;;;1035.50;947.00;;;;;;;;;;5044506;28;20041;-63
2023/06/05 06:36:17;;;;;;;1139.95;999.90;;;;;;;;;;5059253;28;20059;-68
2023/06/05 06:38:44;;;;;;;1205.25;999.90;;;;;;;;;;5060714;28;20489;-67
2023/06/05 06:41:12;;;;;;;1198.65;999.90;;;;;;;;;;5062615;28;20156;-67
2023/06/05 06:43:38;;;;;;;1194.85;999.90;;;;;;;;;;5055934;28;20049;-67
2023/06/05 06:46:06;;;;;;;1202.18;999.90;;;;;;;;;;5061958;28;20041;-68
2023/06/05 06:48:33;;;;;;;1212.68;999.90;;;;;;;;;;5060533;28;20080;-66
2023/06/05 06:51:00;;;;;;;1210.07;999.90;;;;;;;;;;5060492;28;20087;-67
2023/06/05 06:53:27;;;;;;;1209.38;999.90;;;;;;;;;;5061228;28;20503;-67
2023/06/05 06:55:54;;;;;;;1207.63;999.90;;;;;;;;;;5061892;28;20049;-64
2023/06/05 06:58:21;;;;;;;1211.15;999.90;;;;;;;;;;5061340;28;20128;-66
2023/06/05 07:00:48;;;;;;;1214.00;999.90;;;;;;;;;;5058354;28;20040;-67
2023/06/05 07:03:15;;;;;;;1215.25;999.90;;;;;;;;;;5058858;28;20121;-68
2023/06/05 07:05:42;;;;;;;1222.65;999.90;;;;;;;;;;5059810;28;20044;-67
2023/06/05 07:08:09;;;;;;;1216.78;999.90;;;;;;;;;;5064398;28;20115;-62
2023/06/05 07:10:36;;;;;;;1217.00;999.90;;;;;;;;;;5056993;28;20056;-67
2023/06/05 07:13:03;;;;;;;1214.10;999.90;;;;;;;;;;5059697;28;20029;-66
2023/06/05 07:15:29;;;;;;;1221.55;999.90;;;;;;;;;;5058705;28;20049;-66
2023/06/05 07:17:56;;;;;;;1236.25;999.90;;;;;;;;;;5061592;28;20041;-67
2023/06/05 07:20:23;;;;;;;1213.63;999.90;;;;;;;;;;5061296;28;20044;-68
2023/06/05 07:22:50;;;;;;;1196.80;999.90;;;;;;;;;;5062517;28;20438;-66
2023/06/05 07:25:17;;;;;;;1185.82;999.90;;;;;;;;;;5056466;28;20041;-65
2023/06/05 07:27:45;;;;;;;1191.88;999.90;;;;;;;;;;5063162;28;20383;-71
2023/06/05 07:30:15;;;;;;;1160.93;999.90;;;;;;;;;;5058267;28;20041;-68
2023/06/05 07:32:42;;;;;;;1173.82;999.90;;;;;;;;;;5059521;28;20037;-67
2023/06/05 07:35:09;;;;;;;1180.95;999.90;;;;;;;;;;5061239;28;20041;-66
2023/06/05 07:37:36;;;;;;;1206.80;999.90;;;;;;;;;;5062889;28;20036;-67
2023/06/05 07:40:03;;;;;;;1223.90;999.90;;;;;;;;;;5057369;28;20040;-66
2023/06/05 07:42:29;;;;;;;1225.50;999.90;;;;;;;;;;5058959;28;20103;-67
2023/06/05 07:44:56;;;;;;;1213.70;999.90;;;;;;;;;;5062620;28;20037;-67
2023/06/05 07:47:23;;;;;;;1202.38;999.90;;;;;;;;;;5059776;28;20394;-72
2023/06/05 07:49:59;;;;;;;1184.00;999.90;;;;;;;;;;5061050;28;20109;-66
2023/06/05 07:52:26;;;;;;;1170.93;999.90;;;;;;;;;;5057590;28;20036;-66
2023/06/05 07:54:53;;;;;;;1157.70;999.90;;;;;;;;;;5061161;28;20040;-66
2023/06/05 07:57:20;;;;;;;1153.70;999.90;;;;;;;;;;5055656;28;20048;-69
2023/06/05 07:59:48;;;;;;;1152.50;999.90;;;;;;;;;;5059003;28;20387;-62
2023/06/05 08:02:16;;;;;;;1126.45;999.90;;;;;;;;;;5061131;28;20061;-66
2023/06/05 08:04:43;;;;;;;1120.30;999.90;;;;;;;;;;5058895;28;20036;-65
2023/06/05 08:07:10;;;;;;;1114.72;999.90;;;;;;;;;;5058925;28;20119;-64
2023/06/05 08:09:38;;;;;;;1110.00;999.90;;;;;;;;;;5065193;28;20036;-66
2023/06/05 08:12:07;;;;;;;1106.28;999.90;;;;;;;;;;5062447;28;20040;-67
2023/06/05 08:14:35;;;;;;;1113.38;999.90;;;;;;;;;;5064009;28;20043;-64
2023/06/05 08:17:01;;;;;;;1095.50;998.35;;;;;;;;;;5065834;28;20048;-67
2023/06/05 08:19:28;;;;;;;1093.97;998.42;;;;;;;;;;5063578;28;20037;-66
2023/06/05 08:21:56;;;;;;;1087.00;993.67;;;;;;;;;;5063410;28;20045;-68
2023/06/05 08:24:23;;;;;;;1085.50;992.30;;;;;;;;;;5062840;28;20059;-67
2023/06/05 08:26:50;;;;;;;1074.97;982.80;;;;;;;;;;5063459;28;20106;-67
2023/06/05 08:29:17;;;;;;;1071.05;979.38;;;;;;;;;;5068339;28;20052;-62
2023/06/05 08:31:44;;;;;;;1064.03;974.55;;;;;;;;;;5061972;28;20440;-64
2023/06/05 08:34:11;;;;;;;1066.10;976.95;;;;;;;;;;5059890;28;20044;-64
2023/06/05 08:36:37;;;;;;;1055.25;968.40;;;;;;;;;;5064979;28;20040;-67
2023/06/05 08:39:04;;;;;;;1050.80;964.03;;;;;;;;;;5063668;28;20071;-68
2023/06/05 08:41:31;;;;;;;1066.43;976.03;;;;;;;;;;5045174;28;20047;-63
2023/06/05 08:43:58;;;;;;;1059.50;969.88;;;;;;;;;;5064247;28;20049;-67
2023/06/05 08:46:28;;;;;;;1059.03;971.33;;;;;;;;;;5062932;28;20434;-69
2023/06/05 08:48:55;;;;;;;1061.55;970.92;;;;;;;;;;5064244;28;20037;-65
2023/06/05 08:51:22;;;;;;;1059.07;969.60;;;;;;;;;;5066909;28;20044;-68
2023/06/05 08:53:54;;;;;;;1074.28;980.50;;;;;;;;;;5066558;28;20044;-67
2023/06/05 08:56:21;;;;;;;1068.45;976.70;;;;;;;;;;5062508;28;20044;-68
2023/06/05 08:58:48;;;;;;;1065.03;972.97;;;;;;;;;;5064807;28;20110;-67
2023/06/05 09:01:16;;;;;;;1071.75;980.53;;;;;;;;;;5040419;28;20076;-68
2023/06/05 09:03:44;;;;;;;1057.93;968.13;;;;;;;;;;5064592;28;20044;-71
2023/06/05 09:06:11;;;;;;;1063.53;972.40;;;;;;;;;;5061585;28;20098;-67
2023/06/05 09:08:38;;;;;;;1059.45;969.30;;;;;;;;;;5062234;28;20101;-68
2023/06/05 09:11:23;;;;;;;1049.18;963.25;;;;;;;;;;5064390;28;20152;-64
2023/06/05 09:13:51;;;;;;;1046.13;960.40;;;;;;;;;;5063337;28;20040;-67
2023/06/05 09:16:20;;;;;;;1053.30;964.38;;;;;;;;;;5061080;28;20040;-67
2023/06/05 09:18:52;;;;;;;1042.72;957.70;;;;;;;;;;5062263;28;20049;-68
2023/06/05 09:21:18;;;;;;;1034.07;950.40;;;;;;;;;;5060200;28;20072;-64
2023/06/05 09:23:45;;;;;;;1080.18;949.30;;;;;;;;;;5062306;28;20056;-67
2023/06/05 09:26:15;;;;;;;1030.47;947.13;;;;;;;;;;5064828;28;20508;-66
2023/06/05 09:28:54;;;;;;;1027.80;944.45;;;;;;;;;;5064133;28;20053;-67
2023/06/05 09:31:23;;;;;;;1047.45;941.83;;;;;;;;;;5061831;28;20079;-64
2023/06/05 09:33:54;;;;;;;1026.65;945.17;;;;;;;;;;5049138;28;20481;-67
2023/06/05 09:36:26;;;;;;;1018.65;937.53;;;;;;;;;;5062283;28;20387;-62
2023/06/05 09:38:52;;;;;;;1012.92;933.45;;;;;;;;;;5064686;28;20059;-67
2023/06/05 09:41:20;;;;;;;1018.00;937.15;;;;;;;;;;5055377;28;20052;-64
2023/06/05 09:43:49;;;;;;;996.40;918.35;;;;;;;;;;5063530;28;20049;-67
2023/06/05 09:46:17;;;;;;;998.85;920.67;;;;;;;;;;5063411;28;20052;-66
2023/06/05 09:48:50;;;;;;;1001.58;923.10;;;;;;;;;;5062172;28;20387;-63
2023/06/05 09:51:17;;;;;;;995.05;917.35;;;;;;;;;;5063283;28;20062;-66
2023/06/05 09:53:46;;;;;;;1002.55;918.33;;;;;;;;;;5061731;28;20048;-65
2023/06/05 09:56:14;;;;;;;987.28;910.80;;;;;;;;;;5062131;28;20505;-69
2023/06/05 09:58:45;;;;;;;985.30;908.35;;;;;;;;;;5064197;28;20139;-64
2023/06/05 10:01:22;;;;;;;981.22;904.97;;;;;;;;;;5059062;28;20413;-67
2023/06/05 10:03:56;;;;;;;985.97;909.42;;;;;;;;;;5064507;28;20053;-67
2023/06/05 10:06:23;;;;;;;982.03;904.97;;;;;;;;;;5060534;28;20048;-66
2023/06/05 10:08:52;;;;;;;991.65;913.83;;;;;;;;;;5061016;28;20045;-67
2023/06/05 10:11:20;;;;;;;983.45;906.25;;;;;;;;;;5065265;28;20072;-64
2023/06/05 10:13:49;;;;;;;995.28;917.03;;;;;;;;;;5046681;28;20045;-68
2023/06/05 10:16:19;;;;;;;987.03;910.20;;;;;;;;;;5063588;28;20400;-66
2023/06/05 10:18:53;;;;;;;996.70;913.28;;;;;;;;;;5050241;28;20484;-68
2023/06/05 10:21:20;;;;;;;996.72;918.33;;;;;;;;;;5060266;28;20040;-64
2023/06/05 10:24:25;;;;;;;990.67;910.53;;;;;;;;;;5059871;28;20065;-67
2023/06/05 10:27:03;;;;;;;975.42;898.53;;;;;;;;;;4985842;28;20050;-67
2023/06/05 10:29:36;;;;;;;991.75;908.30;;;;;;;;;;4977324;28;20074;-69
2023/06/05 10:32:14;;;;;;;971.47;896.45;;;;;;;;;;4984251;28;20659;-67
2023/06/05 10:35:06;;;;;;;971.80;896.63;;;;;;;;;;4989074;28;20065;-67
2023/06/05 10:37:51;;;;;;;985.30;908.80;;;;;;;;;;4979060;28;20162;-68
2023/06/05 10:40:18;;;;;;;984.08;907.33;;;;;;;;;;4984443;28;20065;-67
2023/06/05 10:42:44;;;;;;;979.88;903.13;;;;;;;;;;4982560;28;20053;-66
2023/06/05 10:45:11;;;;;;;980.20;903.65;;;;;;;;;;4984024;28;20050;-62
2023/06/05 10:47:38;;;;;;;982.35;904.03;;;;;;;;;;4981777;28;20101;-67
2023/06/05 10:50:17;;;;;;;978.00;901.65;;;;;;;;;;4982810;28;20050;-67
2023/06/05 10:52:47;;;;;;;981.40;905.33;;;;;;;;;;4983291;28;20197;-71
2023/06/05 10:55:17;;;;;;;981.30;905.38;;;;;;;;;;4984050;28;20166;-70
2023/06/05 10:58:03;;;;;;;990.97;912.78;;;;;;;;;;5025332;28;20125;-65
2023/06/05 11:00:30;;;;;;;1002.30;923.58;;;;;;;;;;5060628;28;20079;-67
2023/06/05 11:02:58;;;;;;;1008.95;928.03;;;;;;;;;;5043292;28;20057;-67
2023/06/05 11:05:27;;;;;;;1014.65;935.35;;;;;;;;;;5063731;28;20170;-67
2023/06/05 11:08:14;;;;;;;1016.20;935.95;;;;;;;;;;5060963;28;20040;-68
2023/06/05 11:11:00;;;;;;;1003.63;925.78;;;;;;;;;;5049487;28;20056;-67
2023/06/05 11:13:47;;;;;;;1007.95;929.30;;;;;;;;;;5060592;28;20045;-68
2023/06/05 11:16:25;;;;;;;1019.03;938.33;;;;;;;;;;5063241;28;20047;-67
2023/06/05 11:18:54;;;;;;;1025.35;944.72;;;;;;;;;;5063857;28;20497;-68
2023/06/05 11:21:21;;;;;;;1029.28;948.00;;;;;;;;;;5061465;28;20045;-65
2023/06/05 11:24:06;;;;;;;1016.58;929.67;;;;;;;;;;5062280;28;20041;-69
2023/06/05 11:26:42;;;;;;;1014.70;932.28;;;;;;;;;;5058591;28;20045;-68
2023/06/05 11:29:10;;;;;;;1016.28;932.35;;;;;;;;;;5044125;28;20057;-67
2023/06/05 11:31:37;;;;;;;1003.88;923.42;;;;;;;;;;5058808;28;20102;-69
2023/06/05 11:34:10;;;;;;;1014.65;933.75;;;;;;;;;;5045182;28;20041;-62
2023/06/05 11:36:38;;;;;;;1009.25;929.72;;;;;;;;;;5056184;28;20563;-68
2023/06/05 11:39:05;;;;;;;1017.80;936.65;;;;;;;;;;5060967;28;20056;-67
2023/06/05 11:41:32;;;;;;;1021.10;938.88;;;;;;;;;;5067570;28;20041;-69
2023/06/05 11:43:59;;;;;;;1031.50;948.25;;;;;;;;;;5063159;28;20043;-67
2023/06/05 11:46:36;;;;;;;1021.80;940.67;;;;;;;;;;5064686;28;20041;-68
2023/06/05 11:49:04;;;;;;;1025.75;943.25;;;;;;;;;;5063770;28;20083;-68
2023/06/05 11:51:35;;;;;;;1035.03;952.53;;;;;;;;;;5067207;28;20048;-69
2023/06/05 11:54:01;;;;;;;1038.95;957.28;;;;;;;;;;5062382;28;20048;-72
2023/06/05 11:56:29;;;;;;;1036.20;952.13;;;;;;;;;;5067530;28;20482;-68
2023/06/05 11:58:56;;;;;;;1039.43;957.28;;;;;;;;;;5060376;28;20128;-68
2023/06/05 12:01:31;;;;;;;1040.45;956.72;;;;;;;;;;5066640;28;20052;-67
2023/06/05 12:04:02;;;;;;;1047.90;959.45;;;;;;;;;;5062393;28;20394;-66
2023/06/05 12:06:29;;;;;;;1046.65;962.28;;;;;;;;;;5063643;28;20071;-65
2023/06/05 12:09:13;;;;;;;1044.90;956.83;;;;;;;;;;5055618;28;20047;-66
2023/06/05 12:11:41;;;;;;;1052.38;964.30;;;;;;;;;;5066680;28;20045;-65
2023/06/05 12:14:10;;;;;;;1042.53;957.60;;;;;;;;;;5062953;28;20045;-66
2023/06/05 12:16:38;;;;;;;1052.15;965.13;;;;;;;;;;5047436;28;20417;-62
2023/06/05 12:19:23;;;;;;;1055.43;967.13;;;;;;;;;;5063173;28;20128;-61
2023/06/05 12:21:50;;;;;;;1048.68;959.80;;;;;;;;;;5064298;28;20672;-62
2023/06/05 12:24:26;;;;;;;1060.18;962.75;;;;;;;;;;5062191;28;20397;-65
2023/06/05 12:26:54;;;;;;;1054.25;964.65;;;;;;;;;;5062957;28;20071;-66
2023/06/05 12:29:22;;;;;;;1052.68;964.63;;;;;;;;;;5065031;28;20041;-62
2023/06/05 12:31:49;;;;;;;1062.10;972.70;;;;;;;;;;5043829;28;20053;-65
2023/06/05 12:34:16;;;;;;;1048.85;963.42;;;;;;;;;;5060344;28;20053;-68
2023/06/05 12:36:44;;;;;;;1029.80;948.13;;;;;;;;;;5061167;28;20464;-65
2023/06/05 12:39:11;;;;;;;1029.88;946.55;;;;;;;;;;5045717;28;20043;-66
2023/06/05 12:41:38;;;;;;;1036.82;951.25;;;;;;;;;;5062462;28;20101;-67
2023/06/05 12:44:06;;;;;;;1016.45;936.05;;;;;;;;;;5064229;28;20490;-65
2023/06/05 12:46:33;;;;;;;1024.95;941.90;;;;;;;;;;5063307;28;20051;-66
2023/06/05 12:49:01;;;;;;;1044.35;959.88;;;;;;;;;;5062537;28;20123;-62
2023/06/05 12:51:28;;;;;;;1033.97;950.00;;;;;;;;;;5064427;28;20505;-67
2023/06/05 12:53:55;;;;;;;1039.65;954.88;;;;;;;;;;5062170;28;20041;-65
2023/06/05 12:56:26;;;;;;;1045.22;959.22;;;;;;;;;;5065345;28;20098;-66
2023/06/05 12:58:54;;;;;;;1035.22;949.83;;;;;;;;;;5063039;28;20041;-61
2023/06/05 13:01:22;;;;;;;1043.63;951.30;;;;;;;;;;5065711;28;20098;-66
2023/06/05 13:03:49;;;;;;;1041.90;956.42;;;;;;;;;;5066480;28;20452;-66
2023/06/05 13:06:17;;;;;;;1045.47;959.35;;;;;;;;;;5059481;28;20033;-67
2023/06/05 13:08:43;;;;;;;1053.45;964.45;;;;;;;;;;5060914;28;20045;-64
2023/06/05 13:11:11;;;;;;;1046.38;961.03;;;;;;;;;;5051525;28;20051;-66
2023/06/05 13:13:37;;;;;;;1047.88;960.80;;;;;;;;;;5059137;28;20045;-66
2023/06/05 13:16:08;;;;;;;1049.75;959.90;;;;;;;;;;5062674;28;20474;-67
2023/06/05 13:18:35;;;;;;;1046.55;959.75;;;;;;;;;;5062700;28;20486;-71
2023/06/05 13:21:03;;;;;;;1044.40;957.08;;;;;;;;;;5064881;28;20040;-67
2023/06/05 13:23:31;;;;;;;1049.43;963.42;;;;;;;;;;5065722;28;20048;-66
2023/06/05 13:25:59;;;;;;;1052.97;966.03;;;;;;;;;;5065435;28;20045;-66
2023/06/05 13:28:26;;;;;;;1061.30;970.13;;;;;;;;;;5063288;28;20033;-67
2023/06/05 13:30:53;;;;;;;1057.68;967.83;;;;;;;;;;5045828;28;20039;-67
2023/06/05 13:33:20;;;;;;;1056.47;966.10;;;;;;;;;;5059543;28;20365;-67
2023/06/05 13:35:47;;;;;;;1069.38;976.55;;;;;;;;;;5062834;28;20047;-66
2023/06/05 13:38:14;;;;;;;1057.88;966.67;;;;;;;;;;5062898;28;20041;-61
2023/06/05 13:40:42;;;;;;;1060.82;972.20;;;;;;;;;;5060490;28;20056;-62
2023/06/05 13:43:11;;;;;;;1059.95;969.78;;;;;;;;;;5063446;28;20036;-65
2023/06/05 13:45:37;;;;;;;1066.25;976.22;;;;;;;;;;5061140;28;20409;-69
2023/06/05 13:48:04;;;;;;;1060.22;971.03;;;;;;;;;;5061158;28;20045;-66
2023/06/05 13:50:31;;;;;;;1060.63;971.58;;;;;;;;;;5063451;28;20056;-65
2023/06/05 13:52:58;;;;;;;1052.30;962.67;;;;;;;;;;5050484;28;20501;-66
2023/06/05 13:55:25;;;;;;;1051.95;962.85;;;;;;;;;;5059817;28;20106;-63
2023/06/05 13:57:51;;;;;;;1048.82;960.50;;;;;;;;;;5064122;28;20124;-67